Hauptseite
METAR-TAF:

METAR-TAF

Flughäfen :

Flughafen Lusaka

Lusaka, Sambia

Breite: 15-19-51S, Länge: 028-27-09E, Höhe: 1152 m

Beobachtung

Neuester Wetterbericht von vor 19 Minuten, um 10:00 UTC
Wind 6 kt aus Ost
Temperatur 26°C
Luftfeuchtigkeit 61%
Luftdruck 1020 hPa
Sichtweite: 9000 m
Durchbrochene Bewölkung in der Höhe von 2000 ft
Aufgelockert bewölkt in der Höhe von 9000 ft

METAR: FLKK 121000Z 08006KT 9000 BKN020 SCT090 26/18 Q1020

Zeit: 12:19 (10:19 UTC)


TAF: fehlend

Wetterbeobachtungen und Prognosen von mehr als 4000 Flughäfen (METAR und TAF Bericht).

Die verfügbaren Stationen werden durch gelbe und rote Markierungen auf der Karte dargestellt.

Führen Sie die Maus auf sie, um den Namen der Station zu sehen.

Darauf klicken, um die Beobachtung von Wetterbeobachtungen und Prognosen zu sehen.

Um die Karte zu ändern : klicken Sie auf den grünen Tasten mit einem schwarzen Kreuz Zum Vergrößern, auf den grünen Button mit einem Gedankenstrich zu verkleinern, oder auf die grünen Pfeile für benachbarte Karten.


METAR-TAF: